Time;durP1;ratioP1;P1;durP2;ratioP2;P2;SDS_P1;SDS_P2;PMS_P1;PMS_P2;Temp;Humidity;BMP_temperature;BMP_pressure;BME280_temperature;BME280_humidity;BME280_pressure;Samples;Min_cycle;Max_cycle;Signal;HPM_P1;HPM_P2
2022/02/26 00:02:16;;;;;;;10.50;4.73;;;3.50;99.70;;;;;;5073538;28;20435;-65
2022/02/26 00:04:42;;;;;;;11.40;4.87;;;3.50;99.70;;;;;;5073702;28;20827;-64
2022/02/26 00:07:09;;;;;;;10.17;4.00;;;3.50;99.70;;;;;;5073059;28;20489;-65
2022/02/26 00:09:36;;;;;;;9.83;4.17;;;3.60;99.70;;;;;;5073351;28;20880;-64
2022/02/26 00:12:03;;;;;;;7.63;4.23;;;3.70;99.70;;;;;;5073394;28;20457;-64
2022/02/26 00:14:30;;;;;;;8.77;3.57;;;3.70;99.70;;;;;;5073017;28;20447;-65
2022/02/26 00:16:57;;;;;;;9.47;4.70;;;3.80;99.70;;;;;;5072878;28;20541;-64
2022/02/26 00:19:25;;;;;;;8.30;3.93;;;3.80;99.70;;;;;;5073216;28;20446;-64
2022/02/26 00:21:51;;;;;;;13.80;3.97;;;3.70;99.70;;;;;;5073228;28;20946;-64
2022/02/26 00:24:18;;;;;;;11.33;4.20;;;3.80;99.70;;;;;;5073082;28;20446;-64
2022/02/26 00:26:45;;;;;;;8.40;4.27;;;3.80;99.70;;;;;;5072728;28;20486;-64
2022/02/26 00:29:12;;;;;;;14.70;4.13;;;3.90;99.70;;;;;;5073093;28;20446;-64
2022/02/26 00:31:39;;;;;;;7.20;4.17;;;4.00;99.70;;;;;;5072999;28;20454;-65
2022/02/26 00:34:06;;;;;;;9.10;3.80;;;3.90;99.70;;;;;;5073012;28;20438;-64
2022/02/26 00:36:34;;;;;;;13.80;4.60;;;3.80;99.70;;;;;;5072540;28;21032;-66
2022/02/26 00:39:01;;;;;;;9.07;4.63;;;4.00;99.70;;;;;;5072813;28;20449;-64
2022/02/26 00:41:27;;;;;;;12.20;4.63;;;3.90;99.70;;;;;;5072807;28;20443;-64
2022/02/26 00:43:54;;;;;;;9.93;4.00;;;4.20;99.70;;;;;;5072850;28;20508;-64
2022/02/26 00:46:21;;;;;;;8.37;3.77;;;4.20;99.70;;;;;;5072239;28;20901;-64
2022/02/26 00:51:33;;;;;;;11.27;4.17;;;4.40;99.70;;;;;;5072820;28;20423;-64
2022/02/26 00:54:00;;;;;;;10.50;3.93;;;4.30;99.70;;;;;;5072523;28;20804;-65
2022/02/26 00:56:27;;;;;;;9.97;4.17;;;4.20;99.70;;;;;;5072039;28;20850;-65
2022/02/26 00:58:54;;;;;;;7.60;3.70;;;4.10;99.70;;;;;;5072333;28;20443;-65
2022/02/26 01:01:21;;;;;;;12.10;4.47;;;4.30;99.70;;;;;;5072327;28;20492;-64
2022/02/26 01:03:47;;;;;;;10.23;4.70;;;4.20;99.70;;;;;;5072414;28;20442;-65
2022/02/26 01:06:14;;;;;;;8.50;3.80;;;4.10;99.70;;;;;;5071823;28;20482;-64
2022/02/26 01:08:42;;;;;;;10.37;3.77;;;4.00;99.70;;;;;;5072177;28;20838;-64
2022/02/26 01:11:09;;;;;;;11.00;3.83;;;4.00;99.70;;;;;;5072173;28;20500;-65
2022/02/26 01:13:35;;;;;;;8.43;3.83;;;4.00;99.70;;;;;;5072322;28;20844;-65
2022/02/26 01:16:02;;;;;;;12.60;4.10;;;4.20;99.70;;;;;;5071419;28;20517;-64
2022/02/26 01:18:29;;;;;;;9.87;4.13;;;4.10;99.70;;;;;;5072032;28;20447;-64
2022/02/26 01:20:55;;;;;;;10.23;4.53;;;4.20;99.70;;;;;;5072086;28;20491;-64
2022/02/26 01:23:22;;;;;;;15.67;4.00;;;4.10;99.70;;;;;;5071897;28;20953;-64
2022/02/26 01:25:50;;;;;;;15.03;4.60;;;4.30;99.70;;;;;;5061908;28;20479;-65
2022/02/26 01:28:17;;;;;;;8.10;4.13;;;4.30;99.70;;;;;;5051767;28;20451;-64
2022/02/26 01:30:44;;;;;;;11.07;4.10;;;4.10;99.70;;;;;;5051957;28;20451;-65
2022/02/26 01:33:11;;;;;;;10.97;5.13;;;4.10;99.70;;;;;;5051950;28;20462;-64
2022/02/26 01:35:37;;;;;;;9.20;4.20;;;4.00;99.70;;;;;;5051541;28;20459;-64
2022/02/26 01:38:04;;;;;;;10.37;4.13;;;4.10;99.70;;;;;;5051599;28;20493;-64
2022/02/26 01:40:31;;;;;;;7.93;3.93;;;4.10;99.70;;;;;;5051833;28;20455;-65
2022/02/26 01:42:59;;;;;;;11.30;3.60;;;4.10;99.70;;;;;;5051640;28;20443;-64
2022/02/26 01:45:26;;;;;;;13.30;4.63;;;4.10;99.70;;;;;;5051373;28;20978;-65
2022/02/26 01:47:54;;;;;;;7.80;3.60;;;4.00;99.70;;;;;;5051415;28;20479;-65
2022/02/26 01:50:21;;;;;;;7.77;3.70;;;4.20;99.70;;;;;;5051718;28;20451;-64
2022/02/26 01:52:48;;;;;;;10.90;4.10;;;4.20;99.70;;;;;;5051602;28;20451;-64
2022/02/26 01:55:15;;;;;;;12.07;4.20;;;4.10;99.70;;;;;;5051114;28;20479;-65
2022/02/26 01:57:42;;;;;;;12.53;5.10;;;4.20;99.70;;;;;;5051354;28;20471;-65
2022/02/26 02:00:13;;;;;;;9.67;4.20;;;4.20;99.70;;;;;;5051301;28;20440;-64
2022/02/26 02:02:39;;;;;;;9.00;4.00;;;4.00;99.70;;;;;;5051628;28;20472;-65
2022/02/26 02:05:07;;;;;;;8.63;3.90;;;4.00;99.70;;;;;;5051080;28;20467;-64
2022/02/26 02:07:34;;;;;;;11.17;4.10;;;4.00;99.70;;;;;;5051258;28;20484;-64
2022/02/26 02:10:01;;;;;;;9.90;4.20;;;4.00;99.70;;;;;;5051179;28;20447;-64
2022/02/26 02:12:28;;;;;;;11.07;4.10;;;4.00;99.70;;;;;;5051254;28;20959;-65
2022/02/26 02:14:54;;;;;;;10.63;4.73;;;4.00;99.70;;;;;;5050626;28;20452;-64
2022/02/26 02:17:23;;;;;;;11.43;4.50;;;3.90;99.70;;;;;;5051206;28;20431;-64
2022/02/26 02:19:50;;;;;;;12.57;4.87;;;3.80;99.70;;;;;;5051206;28;20546;-65
2022/02/26 02:22:19;;;;;;;9.70;4.17;;;3.70;99.70;;;;;;5051217;28;20989;-65
2022/02/26 02:24:46;;;;;;;11.67;4.70;;;3.70;99.70;;;;;;5051041;28;20447;-63
2022/02/26 02:27:13;;;;;;;11.63;4.50;;;3.80;99.70;;;;;;5051022;28;21006;-65
2022/02/26 02:29:40;;;;;;;8.87;4.30;;;3.70;99.70;;;;;;5051086;28;20881;-65
2022/02/26 02:32:08;;;;;;;12.60;4.80;;;3.80;99.70;;;;;;5051151;28;20447;-65
2022/02/26 02:34:35;;;;;;;12.93;4.50;;;3.90;99.70;;;;;;5051118;28;20471;-65
2022/02/26 02:37:02;;;;;;;15.67;4.20;;;3.80;99.70;;;;;;5050755;28;20463;-65
2022/02/26 02:39:31;;;;;;;13.13;4.50;;;3.80;99.70;;;;;;5050907;28;20942;-65
2022/02/26 02:41:57;;;;;;;10.20;4.20;;;3.90;99.70;;;;;;5051035;28;20455;-65
2022/02/26 02:44:24;;;;;;;13.90;5.00;;;4.00;99.70;;;;;;5050912;28;20973;-65
2022/02/26 02:46:51;;;;;;;12.33;4.70;;;4.00;99.70;;;;;;5050616;28;20487;-66
2022/02/26 02:49:17;;;;;;;10.30;4.67;;;4.00;99.70;;;;;;5050741;28;20444;-65
2022/02/26 02:51:44;;;;;;;10.53;4.50;;;4.00;99.70;;;;;;5051092;28;20443;-65
2022/02/26 02:54:11;;;;;;;9.67;4.63;;;3.90;99.70;;;;;;5050894;28;20447;-64
2022/02/26 02:56:39;;;;;;;12.73;5.00;;;3.90;99.70;;;;;;5050536;28;20840;-67
2022/02/26 02:59:05;;;;;;;11.63;4.60;;;3.80;99.70;;;;;;5050684;28;20806;-65
2022/02/26 03:01:32;;;;;;;10.53;5.23;;;3.80;99.70;;;;;;5050951;28;20452;-64
2022/02/26 03:03:59;;;;;;;13.30;4.33;;;3.80;99.70;;;;;;5050815;28;20447;-64
2022/02/26 03:06:26;;;;;;;16.10;5.00;;;3.80;99.70;;;;;;5050380;28;20496;-64
2022/02/26 03:08:53;;;;;;;15.87;4.50;;;3.80;99.70;;;;;;5050619;28;20439;-64
2022/02/26 03:11:20;;;;;;;13.70;4.80;;;3.70;99.70;;;;;;5050749;28;20455;-64
2022/02/26 03:13:48;;;;;;;10.13;4.70;;;3.70;99.70;;;;;;5053352;28;20931;-64
2022/02/26 03:16:15;;;;;;;9.63;4.53;;;3.60;99.70;;;;;;5053393;28;20470;-64
2022/02/26 03:18:42;;;;;;;12.60;4.50;;;3.60;99.70;;;;;;5054354;28;20462;-66
2022/02/26 03:21:09;;;;;;;8.77;5.20;;;3.60;99.70;;;;;;5054502;28;20443;-67
2022/02/26 03:23:36;;;;;;;12.27;4.93;;;3.70;99.70;;;;;;5054237;28;20443;-64
2022/02/26 03:26:03;;;;;;;11.40;4.90;;;3.70;99.70;;;;;;5054029;28;20506;-64
2022/02/26 03:28:29;;;;;;;12.03;5.03;;;3.80;99.70;;;;;;5054109;28;20479;-64
2022/02/26 03:30:57;;;;;;;13.90;5.40;;;3.80;99.70;;;;;;5054227;28;20462;-64
2022/02/26 03:33:24;;;;;;;18.17;5.53;;;3.80;99.70;;;;;;5054047;28;20448;-64
2022/02/26 03:35:51;;;;;;;13.57;5.63;;;3.90;99.70;;;;;;5053957;28;20471;-64
2022/02/26 03:38:17;;;;;;;12.00;5.30;;;3.90;99.70;;;;;;5053899;28;20958;-65
2022/02/26 03:40:44;;;;;;;18.00;5.67;;;3.90;99.70;;;;;;5054105;28;20858;-64
2022/02/26 03:43:11;;;;;;;17.80;5.93;;;4.10;99.70;;;;;;5054086;28;20470;-64
2022/02/26 03:45:38;;;;;;;25.37;8.03;;;4.00;99.70;;;;;;5053499;28;20570;-66
2022/02/26 03:48:06;;;;;;;13.60;6.23;;;3.90;99.70;;;;;;5053766;28;20504;-65
2022/02/26 03:50:33;;;;;;;17.73;6.70;;;3.80;99.70;;;;;;5053759;28;20935;-66
2022/02/26 03:53:00;;;;;;;16.47;6.43;;;3.70;99.70;;;;;;5053994;28;20443;-64
2022/02/26 03:55:27;;;;;;;16.53;7.03;;;3.80;99.70;;;;;;5053205;28;20476;-64
2022/02/26 03:57:54;;;;;;;16.70;6.03;;;3.70;99.70;;;;;;5053628;28;20444;-64
2022/02/26 04:00:20;;;;;;;23.87;6.60;;;3.70;99.70;;;;;;5053690;28;20452;-66
2022/02/26 04:02:47;;;;;;;18.10;6.40;;;3.70;99.70;;;;;;5053661;28;20498;-67
2022/02/26 04:05:15;;;;;;;16.43;6.80;;;3.60;99.70;;;;;;5053163;28;20537;-66
2022/02/26 04:07:42;;;;;;;15.43;6.33;;;3.50;99.70;;;;;;5053223;28;21006;-66
2022/02/26 04:10:10;;;;;;;16.80;6.50;;;3.50;99.70;;;;;;5053459;28;20455;-66
2022/02/26 04:12:37;;;;;;;18.13;6.77;;;3.50;99.70;;;;;;5053452;28;20451;-66
2022/02/26 04:15:04;;;;;;;14.93;6.63;;;3.60;99.70;;;;;;5052374;28;20472;-65
2022/02/26 04:17:31;;;;;;;18.83;7.17;;;3.40;99.70;;;;;;5053335;28;20440;-65
2022/02/26 04:19:58;;;;;;;13.67;6.27;;;3.40;99.70;;;;;;5053174;28;20439;-66
2022/02/26 04:22:26;;;;;;;13.87;6.57;;;3.40;99.70;;;;;;5053380;28;20444;-65
2022/02/26 04:24:53;;;;;;;16.10;6.40;;;3.50;99.70;;;;;;5052885;28;20830;-66
2022/02/26 04:27:20;;;;;;;17.50;6.43;;;3.40;99.70;;;;;;5053180;28;20487;-66
2022/02/26 04:29:46;;;;;;;16.23;6.70;;;3.50;99.70;;;;;;5053022;28;20447;-65
2022/02/26 04:32:13;;;;;;;20.43;7.63;;;3.60;99.70;;;;;;5053042;28;20506;-65
2022/02/26 04:34:40;;;;;;;13.97;7.07;;;3.60;99.70;;;;;;5052906;28;20450;-66
2022/02/26 04:37:06;;;;;;;18.93;6.87;;;3.50;99.70;;;;;;5052748;28;20521;-66
2022/02/26 04:39:34;;;;;;;13.50;5.77;;;3.60;99.70;;;;;;5052893;28;20452;-66
2022/02/26 04:42:01;;;;;;;16.73;6.10;;;3.50;99.70;;;;;;5052992;28;20440;-65
2022/02/26 04:44:28;;;;;;;16.43;5.77;;;3.40;99.70;;;;;;5052892;28;20914;-63
2022/02/26 04:46:55;;;;;;;16.80;6.50;;;3.30;99.70;;;;;;5052359;28;20484;-65
2022/02/26 04:49:21;;;;;;;16.70;7.33;;;3.30;99.70;;;;;;5052628;28;20450;-66
2022/02/26 04:51:48;;;;;;;19.20;6.80;;;3.20;99.70;;;;;;5052777;28;20870;-65
2022/02/26 04:54:15;;;;;;;14.77;6.20;;;3.10;99.70;;;;;;5052689;28;20443;-65
2022/02/26 04:56:43;;;;;;;19.10;6.63;;;3.20;99.70;;;;;;5052177;28;20483;-65
2022/02/26 04:59:09;;;;;;;15.23;5.97;;;3.10;99.70;;;;;;5052544;28;20448;-66
2022/02/26 05:01:36;;;;;;;17.87;6.53;;;3.10;99.70;;;;;;5052379;28;20444;-65
2022/02/26 05:04:03;;;;;;;17.30;6.70;;;3.00;99.70;;;;;;5052539;28;20436;-65
2022/02/26 05:06:30;;;;;;;23.97;7.67;;;2.90;99.70;;;;;;5051998;28;20467;-65
2022/02/26 05:08:56;;;;;;;18.43;6.93;;;3.00;99.70;;;;;;5052251;28;20479;-66
2022/02/26 05:11:23;;;;;;;17.50;6.80;;;3.00;99.70;;;;;;5052269;28;20448;-66
2022/02/26 05:13:51;;;;;;;20.83;6.97;;;2.90;99.70;;;;;;5052238;28;20887;-66
2022/02/26 05:16:18;;;;;;;20.03;6.90;;;2.90;99.70;;;;;;5051185;28;20490;-65
2022/02/26 05:18:44;;;;;;;20.40;7.30;;;2.80;99.70;;;;;;5052124;28;20452;-65
2022/02/26 05:21:11;;;;;;;17.07;6.43;;;2.90;99.70;;;;;;5052078;28;20450;-66
2022/02/26 05:23:41;;;;;;;19.93;7.27;;;2.90;99.70;;;;;;5052088;28;20450;-66
2022/02/26 05:26:08;;;;;;;16.30;6.20;;;2.90;99.70;;;;;;5051815;28;20470;-65
2022/02/26 05:28:35;;;;;;;16.37;6.57;;;2.90;99.70;;;;;;5051971;28;20855;-66
2022/02/26 05:31:03;;;;;;;15.03;6.33;;;2.80;99.70;;;;;;5051923;28;20444;-65
2022/02/26 05:33:30;;;;;;;21.23;6.93;;;2.90;99.70;;;;;;5051944;28;20444;-66
2022/02/26 05:35:56;;;;;;;15.00;6.57;;;2.90;99.70;;;;;;5051039;28;20467;-65
2022/02/26 05:38:23;;;;;;;18.90;6.27;;;3.10;99.70;;;;;;5051735;28;20451;-67
2022/02/26 05:40:50;;;;;;;21.20;7.20;;;3.00;99.70;;;;;;5051787;28;20800;-66
2022/02/26 05:43:17;;;;;;;17.20;6.80;;;2.80;99.70;;;;;;5051789;28;20837;-66
2022/02/26 05:45:43;;;;;;;20.40;7.33;;;2.80;99.70;;;;;;5051337;28;20553;-66
2022/02/26 05:48:12;;;;;;;17.70;6.70;;;2.80;99.70;;;;;;5051536;28;20897;-66
2022/02/26 05:50:38;;;;;;;15.63;6.40;;;3.00;99.70;;;;;;5051527;28;20542;-66
2022/02/26 05:53:05;;;;;;;19.63;6.90;;;2.90;99.70;;;;;;5051621;28;20935;-66
2022/02/26 05:55:32;;;;;;;20.77;7.60;;;3.00;99.70;;;;;;5111149;22;20471;-64
2022/02/26 05:57:59;;;;;;;23.73;7.73;;;3.20;99.70;;;;;;5049890;28;20808;-66
2022/02/26 06:00:27;;;;;;;18.80;6.97;;;3.10;99.70;;;;;;5049871;28;20934;-68
2022/02/26 06:02:53;;;;;;;19.47;7.30;;;2.90;99.70;;;;;;5050974;28;20450;-67
2022/02/26 06:05:21;;;;;;;16.70;6.63;;;2.90;99.70;;;;;;5050530;28;21044;-68
2022/02/26 06:07:48;;;;;;;21.03;7.50;;;2.90;99.70;;;;;;5050711;28;20533;-66
2022/02/26 06:10:15;;;;;;;21.10;7.73;;;2.80;99.70;;;;;;5050938;28;20456;-66
2022/02/26 06:12:41;;;;;;;22.07;7.77;;;2.70;99.70;;;;;;5050806;28;20821;-68
2022/02/26 06:15:09;;;;;;;19.60;6.87;;;2.80;99.70;;;;;;5049753;28;20455;-68
2022/02/26 06:17:36;;;;;;;17.60;7.13;;;2.70;99.70;;;;;;5050606;28;20471;-67
2022/02/26 06:20:04;;;;;;;19.43;7.07;;;2.70;99.70;;;;;;5050783;28;20534;-68
2022/02/26 06:22:32;;;;;;;21.50;7.00;;;2.70;99.70;;;;;;5050788;28;20450;-68
2022/02/26 06:24:59;;;;;;;18.57;7.00;;;2.80;99.70;;;;;;5050401;28;20443;-68
2022/02/26 06:27:26;;;;;;;20.73;6.97;;;2.70;99.70;;;;;;5050397;28;20489;-68
2022/02/26 06:29:52;;;;;;;15.63;6.13;;;2.70;99.70;;;;;;5050558;28;20444;-68
2022/02/26 06:32:19;;;;;;;19.93;7.03;;;2.70;99.70;;;;;;5050524;28;20859;-68
2022/02/26 06:34:47;;;;;;;20.00;6.57;;;2.80;99.70;;;;;;5050402;28;20447;-65
2022/02/26 06:37:13;;;;;;;17.03;7.13;;;2.70;99.70;;;;;;5050551;28;20479;-67
2022/02/26 06:39:42;;;;;;;15.20;6.93;;;2.80;99.70;;;;;;5050475;28;20450;-66
2022/02/26 06:42:08;;;;;;;32.87;14.20;;;3.10;99.70;;;;;;5050616;28;20455;-67
2022/02/26 06:44:35;;;;;;;24.37;9.53;;;3.10;99.70;;;;;;5050407;28;20945;-68
2022/02/26 06:47:02;;;;;;;19.23;7.53;;;3.10;99.70;;;;;;5050066;28;20851;-68
2022/02/26 06:49:29;;;;;;;20.50;8.20;;;3.10;99.70;;;;;;5054319;28;20977;-68
2022/02/26 06:51:55;;;;;;;18.73;7.50;;;3.30;99.70;;;;;;5054238;28;20454;-69
2022/02/26 06:54:23;;;;;;;24.40;9.63;;;3.30;99.70;;;;;;5054528;28;20444;-68
2022/02/26 06:56:52;;;;;;;25.53;11.20;;;3.40;99.70;;;;;;5054111;28;20923;-67
2022/02/26 06:59:19;;;;;;;23.17;9.40;;;3.40;99.70;;;;;;5054328;28;20501;-67
2022/02/26 07:01:46;;;;;;;24.80;8.83;;;3.60;99.70;;;;;;5054163;28;20444;-68
2022/02/26 07:04:13;;;;;;;31.87;9.07;;;3.60;99.70;;;;;;5054245;28;20501;-67
2022/02/26 07:06:42;;;;;;;34.40;14.60;;;3.50;99.70;;;;;;5054037;28;20475;-67
2022/02/26 07:09:09;;;;;;;34.07;11.93;;;3.50;99.70;;;;;;5053969;28;20489;-68
2022/02/26 07:11:36;;;;;;;21.90;8.60;;;3.60;99.70;;;;;;5053923;28;20526;-68
2022/02/26 07:14:04;;;;;;;38.93;15.17;;;3.70;99.70;;;;;;5053350;28;20497;-67
2022/02/26 07:16:31;;;;;;;32.83;11.40;;;3.70;99.70;;;;;;5053690;28;20460;-69
2022/02/26 07:18:58;;;;;;;30.40;11.50;;;3.70;99.70;;;;;;5053896;28;20435;-67
2022/02/26 07:21:24;;;;;;;36.30;14.67;;;3.60;99.70;;;;;;5053913;28;20451;-66
2022/02/26 07:23:53;;;;;;;23.53;9.40;;;3.60;99.70;;;;;;5053860;28;20832;-65
2022/02/26 07:26:20;;;;;;;25.53;9.57;;;3.50;99.70;;;;;;5053668;28;20463;-67
2022/02/26 07:28:47;;;;;;;25.03;8.30;;;3.60;99.70;;;;;;5053545;28;20498;-68
2022/02/26 07:31:15;;;;;;;25.70;9.53;;;3.70;99.70;;;;;;5054010;28;20443;-65
2022/02/26 07:33:41;;;;;;;22.10;7.53;;;3.60;99.70;;;;;;5053714;28;20436;-66
2022/02/26 07:36:08;;;;;;;26.23;9.23;;;3.70;99.70;;;;;;5053457;28;20463;-69
2022/02/26 07:38:35;;;;;;;25.60;10.30;;;3.70;99.70;;;;;;5053569;28;20938;-67
2022/02/26 07:41:02;;;;;;;25.63;8.60;;;3.60;99.70;;;;;;5053849;28;20440;-67
2022/02/26 07:43:29;;;;;;;23.23;9.27;;;3.60;99.70;;;;;;5053502;28;20450;-68
2022/02/26 07:45:56;;;;;;;23.10;9.43;;;3.80;99.70;;;;;;5053137;28;20809;-67
2022/02/26 07:48:24;;;;;;;28.60;9.37;;;4.00;99.70;;;;;;5053138;28;20486;-67
2022/02/26 07:50:51;;;;;;;28.83;9.63;;;4.10;99.70;;;;;;5053393;28;20444;-65
2022/02/26 07:53:18;;;;;;;28.93;9.63;;;4.00;99.70;;;;;;5053241;28;20439;-67
2022/02/26 07:55:44;;;;;;;24.87;9.60;;;3.90;99.70;;;;;;5052835;28;20534;-67
2022/02/26 07:58:11;;;;;;;28.20;10.43;;;4.10;99.70;;;;;;5052800;28;20447;-67
2022/02/26 08:00:38;;;;;;;24.67;11.27;;;4.00;99.70;;;;;;5053298;28;20454;-68
2022/02/26 08:03:05;;;;;;;19.47;9.03;;;4.00;99.70;;;;;;5053060;28;20962;-67
2022/02/26 08:05:33;;;;;;;29.67;13.30;;;4.10;99.70;;;;;;5052882;28;20439;-67
2022/02/26 08:08:00;;;;;;;28.90;12.53;;;4.00;99.70;;;;;;5052845;28;20859;-68
2022/02/26 08:10:27;;;;;;;33.07;12.03;;;4.00;99.70;;;;;;5053164;28;20440;-66
2022/02/26 08:12:55;;;;;;;19.70;8.90;;;4.10;99.70;;;;;;5052856;28;20447;-68
2022/02/26 08:15:24;;;;;;;22.97;9.03;;;4.20;99.70;;;;;;5051729;28;20446;-66
2022/02/26 08:17:51;;;;;;;21.57;8.83;;;4.30;99.70;;;;;;5052193;28;20440;-68
2022/02/26 08:20:20;;;;;;;21.53;8.17;;;4.30;99.70;;;;;;5051605;28;20448;-67
2022/02/26 08:22:48;;;;;;;26.00;9.57;;;4.20;99.70;;;;;;5051517;28;20498;-67
2022/02/26 08:25:14;;;;;;;20.93;8.50;;;4.40;99.70;;;;;;5050975;28;20828;-67
2022/02/26 08:27:42;;;;;;;30.80;9.43;;;4.40;99.70;;;;;;5050222;28;20455;-66
2022/02/26 08:30:11;;;;;;;21.13;9.03;;;4.40;99.70;;;;;;5044931;28;20970;-68
2022/02/26 08:32:37;;;;;;;24.73;12.10;;;4.70;99.70;;;;;;5045328;28;20464;-66
2022/02/26 08:35:05;;;;;;;21.97;10.10;;;4.70;99.70;;;;;;5050353;28;20936;-66
2022/02/26 08:37:34;;;;;;;22.27;9.03;;;4.90;99.70;;;;;;5050654;28;20525;-66
2022/02/26 08:40:03;;;;;;;29.10;9.80;;;4.80;99.70;;;;;;5051410;28;20448;-66
2022/02/26 08:42:30;;;;;;;29.70;10.07;;;5.10;99.70;;;;;;5051489;28;20448;-67
2022/02/26 08:44:56;;;;;;;19.43;9.57;;;5.00;99.70;;;;;;5051953;28;20440;-67
2022/02/26 08:47:24;;;;;;;22.40;9.07;;;5.30;99.70;;;;;;5051397;28;20471;-66
2022/02/26 08:49:50;;;;;;;18.80;9.00;;;5.50;99.70;;;;;;5051756;28;20484;-67
2022/02/26 08:52:17;;;;;;;20.00;8.23;;;6.00;99.70;;;;;;5049973;28;20464;-66
2022/02/26 08:54:44;;;;;;;17.20;7.70;;;6.20;99.70;;;;;;5051239;28;20439;-67
2022/02/26 08:57:12;;;;;;;19.63;7.90;;;6.70;99.70;;;;;;5051575;28;20503;-66
2022/02/26 08:59:39;;;;;;;21.30;7.97;;;7.50;99.70;;;;;;5051672;28;20447;-67
2022/02/26 09:02:06;;;;;;;18.43;7.83;;;7.70;99.70;;;;;;5051752;28;20459;-66
2022/02/26 09:04:32;;;;;;;23.43;7.60;;;7.40;99.70;;;;;;5051676;28;20467;-66
2022/02/26 09:06:59;;;;;;;20.80;7.83;;;7.00;99.70;;;;;;5050950;28;20841;-66
2022/02/26 09:09:26;;;;;;;16.77;7.50;;;6.60;99.70;;;;;;5050290;28;20490;-68
2022/02/26 09:11:53;;;;;;;17.87;8.00;;;6.00;99.70;;;;;;5049542;28;20439;-67
2022/02/26 09:14:21;;;;;;;20.40;7.33;;;5.50;99.70;;;;;;5048741;28;21225;-66
2022/02/26 09:16:48;;;;;;;21.30;8.00;;;5.60;99.70;;;;;;5049378;28;20836;-67
2022/02/26 09:19:14;;;;;;;20.10;8.57;;;5.70;99.70;;;;;;5049970;28;20452;-67
2022/02/26 09:21:41;;;;;;;18.90;6.97;;;6.00;99.70;;;;;;5050122;28;20498;-67
2022/02/26 09:24:08;;;;;;;18.40;7.27;;;6.50;99.70;;;;;;5049990;28;20443;-67
2022/02/26 09:26:35;;;;;;;16.73;7.00;;;6.80;99.70;;;;;;5047020;28;20990;-67
2022/02/26 09:29:01;;;;;;;19.70;7.30;;;6.70;99.70;;;;;;5048704;28;20495;-67
2022/02/26 09:31:30;;;;;;;16.63;6.70;;;6.70;99.70;;;;;;5049265;28;20826;-67
2022/02/26 09:33:56;;;;;;;18.50;6.30;;;7.20;99.70;;;;;;5049620;28;20970;-66
2022/02/26 09:36:23;;;;;;;13.70;5.80;;;6.80;99.70;;;;;;5049193;28;20463;-67
2022/02/26 09:38:50;;;;;;;9.80;5.37;;;6.60;99.70;;;;;;5049186;28;20467;-66
2022/02/26 09:41:17;;;;;;;8.63;3.90;;;6.20;99.70;;;;;;5041840;28;20934;-65
2022/02/26 09:43:43;;;;;;;10.27;4.27;;;5.80;99.70;;;;;;5049033;28;20448;-65
2022/02/26 09:46:12;;;;;;;9.07;2.60;;;5.90;99.70;;;;;;5048536;28;20811;-66
2022/02/26 09:48:40;;;;;;;6.40;2.40;;;5.60;99.70;;;;;;5049392;28;20484;-65
2022/02/26 09:51:07;;;;;;;5.90;2.40;;;5.60;99.40;;;;;;5048878;28;20463;-65
2022/02/26 09:53:34;;;;;;;5.63;2.10;;;5.60;99.70;;;;;;5048895;28;20460;-66
2022/02/26 09:56:00;;;;;;;6.07;3.03;;;5.80;98.70;;;;;;5047591;28;20486;-66
2022/02/26 09:58:27;;;;;;;8.03;2.40;;;5.80;99.70;;;;;;5048803;28;20513;-66
2022/02/26 10:00:54;;;;;;;6.30;2.60;;;5.80;99.70;;;;;;5041612;28;20471;-66
2022/02/26 10:03:30;;;;;;;9.80;2.30;;;5.80;99.70;;;;;;5046311;28;20958;-66
2022/02/26 10:06:09;;;;;;;8.80;2.67;;;5.80;99.70;;;;;;5048330;28;20493;-67
2022/02/26 10:08:38;;;;;;;10.23;2.50;;;6.00;99.70;;;;;;5046235;28;20593;-66
2022/02/26 10:11:05;;;;;;;6.63;2.43;;;6.10;99.70;;;;;;5047275;28;20973;-66
2022/02/26 10:13:40;;;;;;;7.63;2.30;;;6.10;99.70;;;;;;5043401;28;20480;-67
2022/02/26 10:16:07;;;;;;;6.63;2.80;;;6.50;99.50;;;;;;5044452;28;20548;-66
2022/02/26 10:18:34;;;;;;;6.03;2.80;;;7.30;97.90;;;;;;5047025;28;20468;-66
2022/02/26 10:21:02;;;;;;;9.77;2.80;;;7.70;95.80;;;;;;5047834;28;20445;-65
2022/02/26 10:23:30;;;;;;;9.83;2.80;;;7.70;94.80;;;;;;5047986;28;20466;-67
2022/02/26 10:26:07;;;;;;;6.57;2.30;;;7.80;96.40;;;;;;5042894;28;20460;-66
2022/02/26 10:28:40;;;;;;;11.73;2.33;;;7.80;96.60;;;;;;5046725;28;20479;-69
2022/02/26 10:31:11;;;;;;;8.20;2.63;;;7.80;93.80;;;;;;5046303;28;20451;-66
2022/02/26 10:33:38;;;;;;;5.00;2.13;;;7.50;93.20;;;;;;5046131;28;20479;-67
2022/02/26 10:36:10;;;;;;;4.10;2.20;;;7.20;94.30;;;;;;5044563;28;20485;-67
2022/02/26 10:38:39;;;;;;;6.87;2.10;;;6.80;93.70;;;;;;5046547;28;20852;-67
2022/02/26 10:41:08;;;;;;;7.43;2.87;;;6.80;94.80;;;;;;5044144;28;20459;-67
2022/02/26 10:43:40;;;;;;;7.13;2.30;;;6.70;94.70;;;;;;5046103;28;20451;-68
2022/02/26 10:46:27;;;;;;;12.70;4.73;;;6.60;94.90;;;;;;5046578;28;20554;-66
2022/02/26 10:48:55;;;;;;;12.10;2.93;;;7.00;95.40;;;;;;5047585;28;20471;-67
2022/02/26 10:51:27;;;;;;;8.00;2.70;;;6.40;92.90;;;;;;5045201;28;20452;-67
2022/02/26 10:54:00;;;;;;;9.97;2.73;;;6.50;94.70;;;;;;5048921;28;20903;-67
2022/02/26 10:56:32;;;;;;;6.60;2.67;;;6.30;94.70;;;;;;5048524;28;20475;-67
2022/02/26 10:58:59;;;;;;;11.63;5.50;;;6.10;95.30;;;;;;5048923;28;20436;-66
2022/02/26 11:01:25;;;;;;;10.07;4.30;;;5.90;96.40;;;;;;5048295;28;20537;-66
2022/02/26 11:03:55;;;;;;;10.43;3.03;;;5.90;98.00;;;;;;5048614;28;20444;-68
2022/02/26 11:06:22;;;;;;;8.20;2.40;;;5.90;97.10;;;;;;5046281;28;20930;-66
2022/02/26 11:08:51;;;;;;;7.53;2.70;;;5.90;97.10;;;;;;5048513;28;20436;-67
2022/02/26 11:11:20;;;;;;;9.37;3.13;;;5.70;97.60;;;;;;5048689;28;20443;-67
2022/02/26 11:13:50;;;;;;;9.73;4.33;;;5.80;97.90;;;;;;5048712;28;20973;-67
2022/02/26 11:16:19;;;;;;;10.50;3.17;;;5.80;99.30;;;;;;5048529;28;20471;-67
2022/02/26 11:18:48;;;;;;;10.73;3.50;;;6.00;98.00;;;;;;5048350;28;20527;-65
2022/02/26 11:21:17;;;;;;;13.50;3.63;;;6.00;98.70;;;;;;5048997;28;20456;-66
2022/02/26 11:23:45;;;;;;;7.23;2.73;;;5.90;97.90;;;;;;5048969;28;20440;-67
2022/02/26 11:26:13;;;;;;;14.30;5.40;;;5.90;98.80;;;;;;5048474;28;20464;-66
2022/02/26 11:28:46;;;;;;;8.30;4.00;;;5.70;97.60;;;;;;5048290;28;20961;-66
2022/02/26 11:31:18;;;;;;;7.63;2.83;;;5.70;99.30;;;;;;5049033;28;20951;-66
2022/02/26 11:33:46;;;;;;;9.27;3.30;;;5.80;98.10;;;;;;5047736;28;20443;-66
2022/02/26 11:36:13;;;;;;;10.17;3.67;;;6.20;98.90;;;;;;5052109;28;20456;-66
2022/02/26 11:38:43;;;;;;;8.03;2.70;;;6.50;99.40;;;;;;5049073;28;20432;-66
2022/02/26 11:41:22;;;;;;;7.33;3.53;;;6.70;95.60;;;;;;5052136;28;20435;-66
2022/02/26 11:43:52;;;;;;;6.23;2.90;;;6.60;94.90;;;;;;5045337;28;20509;-66
2022/02/26 11:46:24;;;;;;;10.43;3.20;;;6.50;98.10;;;;;;5051052;28;20470;-67
2022/02/26 11:48:51;;;;;;;8.03;2.63;;;6.40;96.50;;;;;;5050912;28;20448;-68
2022/02/26 11:51:18;;;;;;;7.33;2.57;;;6.70;99.70;;;;;;5051904;28;20444;-67
2022/02/26 11:53:46;;;;;;;9.27;2.50;;;6.80;98.20;;;;;;5051388;28;20962;-68
2022/02/26 11:56:14;;;;;;;11.60;3.93;;;6.70;98.20;;;;;;5051345;28;20467;-68
2022/02/26 11:58:44;;;;;;;4.83;2.60;;;6.80;94.70;;;;;;5049305;28;20957;-65
2022/02/26 12:01:14;;;;;;;4.90;2.20;;;6.80;96.80;;;;;;5051846;28;20531;-67
2022/02/26 12:03:50;;;;;;;9.13;3.10;;;6.40;96.60;;;;;;5048539;28;20817;-66
2022/02/26 12:06:36;;;;;;;9.20;3.73;;;6.60;99.40;;;;;;5051222;28;20494;-67
2022/02/26 12:09:12;;;;;;;12.90;2.80;;;6.50;96.50;;;;;;5050199;28;20819;-66
2022/02/26 12:11:45;;;;;;;5.40;2.70;;;6.50;96.80;;;;;;5049631;28;20459;-67
2022/02/26 12:14:21;;;;;;;6.97;2.87;;;6.20;96.30;;;;;;5050004;28;20436;-67
2022/02/26 12:16:50;;;;;;;5.90;2.63;;;6.20;97.40;;;;;;5050671;28;20451;-67
2022/02/26 12:19:26;;;;;;;4.90;2.63;;;6.20;96.60;;;;;;5050548;28;20555;-66
2022/02/26 12:21:57;;;;;;;9.50;2.93;;;6.20;97.00;;;;;;5048425;28;20817;-68
2022/02/26 12:24:25;;;;;;;5.60;2.57;;;6.20;96.50;;;;;;5048405;28;20483;-66
2022/02/26 12:27:02;;;;;;;7.40;2.30;;;5.90;95.90;;;;;;5050693;28;20462;-66
2022/02/26 12:29:52;;;;;;;6.63;2.50;;;6.00;97.20;;;;;;5048881;28;20479;-67
2022/02/26 12:32:23;;;;;;;4.20;2.30;;;6.10;97.30;;;;;;5050864;28;20940;-67
2022/02/26 12:35:03;;;;;;;8.20;2.47;;;6.20;97.00;;;;;;5050848;28;20444;-67
2022/02/26 12:37:31;;;;;;;7.27;2.50;;;6.10;97.20;;;;;;5048886;28;20874;-66
2022/02/26 12:40:00;;;;;;;6.70;2.33;;;6.20;97.90;;;;;;5050974;28;20869;-66
2022/02/26 12:42:29;;;;;;;7.17;2.83;;;6.10;96.80;;;;;;5045259;28;20451;-67
2022/02/26 12:44:57;;;;;;;9.60;2.30;;;6.20;97.10;;;;;;5051024;28;20440;-68
2022/02/26 12:47:26;;;;;;;8.57;2.57;;;6.00;96.60;;;;;;5051389;28;21099;-67
2022/02/26 12:49:54;;;;;;;11.03;2.80;;;6.10;97.20;;;;;;5051773;28;20533;-67
2022/02/26 12:52:21;;;;;;;8.37;2.40;;;6.20;95.90;;;;;;5050082;28;20494;-66
2022/02/26 12:54:49;;;;;;;5.97;2.50;;;6.20;98.10;;;;;;5050750;28;20494;-66
2022/02/26 12:57:17;;;;;;;6.60;2.17;;;6.60;96.60;;;;;;5051258;28;20483;-67